sim
Sign-in with your pilot id or email,
or register
Callsign
Passwort

Schedule Details

Flight Number: DLH1717 (1)
Departure: Split Airport (LDSP) at 18:40
Arrival: Munich Airport (EDDM) at 20:05
Route: Lufthansa Passenger Schedule. Enter filed route here before submitting Pirep.

Weather Information
Getting current METAR information for LDSP 231200Z 08004KT 040V130 9999 VCTS FEW025CB BKN030 25/19 Q1011 TEMPO TSRA
Getting current METAR information for EDDM 231220Z VRB03KT 9999 FEW012 SCT030 BKN043 18/15 Q1010 TEMPO 4000 SHRA BKN020CB

Schedule Frequency

Route Map